Terminal Aerodrome Forecast
Issued by NWS

Home | Current Version | Previous Version | Text Only | Print | Product List | Glossary On
Versions: 1 2 3 4 5 6 7 8 9 10 11 12 13 14 15 16 17 18 19 20 21 22 23 24 25
000
FTUS43 KDLH 211000 AAB
TAFHYR
TAF AMD
KHYR 211012Z 2110/2206 VRB03KT P6SM BKN100
      TEMPO 2111/2114 3SM BR SCT120
     FM211500 26008KT P6SM VCSH BKN040
     FM211700 31012G20KT P6SM SCT040=

USA.gov is the U.S. government's official web portal to all federal, state and local government web resources and services.